sensor_id;sensor_type;location;lat;lon;timestamp;P1;durP1;ratioP1;P2;durP2;ratioP2
38238;SDS011;24035;48.900;9.188;2023-08-30T00:00:17;4.10;;;2.33;;
38238;SDS011;24035;48.900;9.188;2023-08-30T00:02:44;5.82;;;2.72;;
38238;SDS011;24035;48.900;9.188;2023-08-30T00:05:10;5.30;;;2.80;;
38238;SDS011;24035;48.900;9.188;2023-08-30T00:07:36;4.65;;;2.47;;
38238;SDS011;24035;48.900;9.188;2023-08-30T00:10:02;4.75;;;2.63;;
38238;SDS011;24035;48.900;9.188;2023-08-30T00:12:28;7.40;;;3.30;;
38238;SDS011;24035;48.900;9.188;2023-08-30T00:14:55;6.72;;;3.50;;
38238;SDS011;24035;48.900;9.188;2023-08-30T00:17:21;7.18;;;3.85;;
38238;SDS011;24035;48.900;9.188;2023-08-30T00:19:47;5.55;;;3.20;;
38238;SDS011;24035;48.900;9.188;2023-08-30T00:22:14;6.93;;;3.65;;
38238;SDS011;24035;48.900;9.188;2023-08-30T00:24:40;6.65;;;4.13;;
38238;SDS011;24035;48.900;9.188;2023-08-30T00:27:05;6.75;;;3.63;;
38238;SDS011;24035;48.900;9.188;2023-08-30T00:29:31;9.70;;;3.47;;
38238;SDS011;24035;48.900;9.188;2023-08-30T00:31:57;8.20;;;3.80;;
38238;SDS011;24035;48.900;9.188;2023-08-30T00:34:23;7.70;;;3.60;;
38238;SDS011;24035;48.900;9.188;2023-08-30T00:36:49;6.68;;;3.70;;
38238;SDS011;24035;48.900;9.188;2023-08-30T00:39:15;6.75;;;3.58;;
38238;SDS011;24035;48.900;9.188;2023-08-30T00:41:40;6.70;;;4.32;;
38238;SDS011;24035;48.900;9.188;2023-08-30T00:44:06;6.15;;;3.72;;
38238;SDS011;24035;48.900;9.188;2023-08-30T00:46:34;6.85;;;3.35;;
38238;SDS011;24035;48.900;9.188;2023-08-30T00:49:01;7.00;;;3.67;;
38238;SDS011;24035;48.900;9.188;2023-08-30T00:51:27;6.97;;;3.80;;
38238;SDS011;24035;48.900;9.188;2023-08-30T00:53:56;10.20;;;3.38;;
38238;SDS011;24035;48.900;9.188;2023-08-30T00:56:23;6.80;;;4.00;;
38238;SDS011;24035;48.900;9.188;2023-08-30T00:58:49;8.68;;;3.50;;
38238;SDS011;24035;48.900;9.188;2023-08-30T01:01:16;5.45;;;3.35;;
38238;SDS011;24035;48.900;9.188;2023-08-30T01:03:42;8.68;;;3.70;;
38238;SDS011;24035;48.900;9.188;2023-08-30T01:06:08;5.22;;;2.92;;
38238;SDS011;24035;48.900;9.188;2023-08-30T01:08:34;7.35;;;3.60;;
38238;SDS011;24035;48.900;9.188;2023-08-30T01:13:41;5.72;;;2.97;;
38238;SDS011;24035;48.900;9.188;2023-08-30T01:16:09;7.38;;;3.25;;
38238;SDS011;24035;48.900;9.188;2023-08-30T01:18:36;5.90;;;3.45;;
38238;SDS011;24035;48.900;9.188;2023-08-30T01:21:04;6.97;;;3.78;;
38238;SDS011;24035;48.900;9.188;2023-08-30T01:23:47;6.80;;;3.65;;
38238;SDS011;24035;48.900;9.188;2023-08-30T01:26:20;5.13;;;3.10;;
38238;SDS011;24035;48.900;9.188;2023-08-30T01:28:54;5.78;;;3.35;;
38238;SDS011;24035;48.900;9.188;2023-08-30T01:31:23;7.07;;;3.42;;
38238;SDS011;24035;48.900;9.188;2023-08-30T01:33:49;6.15;;;3.08;;
38238;SDS011;24035;48.900;9.188;2023-08-30T01:36:17;6.03;;;3.45;;
38238;SDS011;24035;48.900;9.188;2023-08-30T01:38:42;6.82;;;3.30;;
38238;SDS011;24035;48.900;9.188;2023-08-30T01:41:09;5.45;;;3.45;;
38238;SDS011;24035;48.900;9.188;2023-08-30T01:43:35;5.53;;;3.00;;
38238;SDS011;24035;48.900;9.188;2023-08-30T01:46:02;5.72;;;3.25;;
38238;SDS011;24035;48.900;9.188;2023-08-30T01:48:29;7.35;;;3.78;;
38238;SDS011;24035;48.900;9.188;2023-08-30T01:50:58;6.15;;;3.53;;
38238;SDS011;24035;48.900;9.188;2023-08-30T01:53:25;5.43;;;3.28;;
38238;SDS011;24035;48.900;9.188;2023-08-30T01:55:53;5.57;;;3.55;;
38238;SDS011;24035;48.900;9.188;2023-08-30T01:58:18;5.80;;;3.28;;
38238;SDS011;24035;48.900;9.188;2023-08-30T02:00:45;9.52;;;4.15;;
38238;SDS011;24035;48.900;9.188;2023-08-30T02:03:11;5.60;;;3.08;;
38238;SDS011;24035;48.900;9.188;2023-08-30T02:08:48;6.60;;;3.10;;
38238;SDS011;24035;48.900;9.188;2023-08-30T02:11:22;5.20;;;2.90;;
38238;SDS011;24035;48.900;9.188;2023-08-30T02:13:51;5.93;;;3.30;;
38238;SDS011;24035;48.900;9.188;2023-08-30T02:16:19;7.00;;;3.63;;
38238;SDS011;24035;48.900;9.188;2023-08-30T02:18:47;5.97;;;3.08;;
38238;SDS011;24035;48.900;9.188;2023-08-30T02:21:14;6.03;;;3.42;;
38238;SDS011;24035;48.900;9.188;2023-08-30T02:23:40;6.88;;;3.72;;
38238;SDS011;24035;48.900;9.188;2023-08-30T02:26:05;6.85;;;3.35;;
38238;SDS011;24035;48.900;9.188;2023-08-30T02:28:31;6.93;;;2.97;;
38238;SDS011;24035;48.900;9.188;2023-08-30T02:30:57;7.82;;;4.15;;
38238;SDS011;24035;48.900;9.188;2023-08-30T02:33:23;6.05;;;3.30;;
38238;SDS011;24035;48.900;9.188;2023-08-30T02:35:48;5.70;;;3.45;;
38238;SDS011;24035;48.900;9.188;2023-08-30T02:38:14;6.32;;;3.55;;
38238;SDS011;24035;48.900;9.188;2023-08-30T02:40:40;7.13;;;3.05;;
38238;SDS011;24035;48.900;9.188;2023-08-30T02:43:06;6.53;;;3.25;;
38238;SDS011;24035;48.900;9.188;2023-08-30T02:45:32;7.22;;;3.13;;
38238;SDS011;24035;48.900;9.188;2023-08-30T02:47:58;5.88;;;3.65;;
38238;SDS011;24035;48.900;9.188;2023-08-30T02:50:24;6.03;;;3.25;;
38238;SDS011;24035;48.900;9.188;2023-08-30T02:52:50;5.28;;;3.13;;
38238;SDS011;24035;48.900;9.188;2023-08-30T02:55:17;7.10;;;3.45;;
38238;SDS011;24035;48.900;9.188;2023-08-30T02:57:43;5.72;;;3.00;;
38238;SDS011;24035;48.900;9.188;2023-08-30T03:00:09;4.93;;;2.88;;
38238;SDS011;24035;48.900;9.188;2023-08-30T03:02:34;7.75;;;3.75;;
38238;SDS011;24035;48.900;9.188;2023-08-30T03:05:00;6.82;;;3.25;;
38238;SDS011;24035;48.900;9.188;2023-08-30T03:07:28;5.80;;;3.03;;
38238;SDS011;24035;48.900;9.188;2023-08-30T03:09:54;5.68;;;3.17;;
38238;SDS011;24035;48.900;9.188;2023-08-30T03:12:20;5.88;;;3.22;;
38238;SDS011;24035;48.900;9.188;2023-08-30T03:14:46;5.65;;;3.42;;
38238;SDS011;24035;48.900;9.188;2023-08-30T03:17:12;6.80;;;3.80;;
38238;SDS011;24035;48.900;9.188;2023-08-30T03:19:38;6.43;;;3.35;;
38238;SDS011;24035;48.900;9.188;2023-08-30T03:22:04;5.57;;;3.15;;
38238;SDS011;24035;48.900;9.188;2023-08-30T03:24:30;5.90;;;2.90;;
38238;SDS011;24035;48.900;9.188;2023-08-30T03:26:56;6.03;;;3.28;;
38238;SDS011;24035;48.900;9.188;2023-08-30T03:29:22;7.00;;;4.03;;
38238;SDS011;24035;48.900;9.188;2023-08-30T03:31:48;4.28;;;2.72;;
38238;SDS011;24035;48.900;9.188;2023-08-30T03:34:13;5.25;;;2.97;;
38238;SDS011;24035;48.900;9.188;2023-08-30T03:36:40;7.00;;;3.47;;
38238;SDS011;24035;48.900;9.188;2023-08-30T03:39:08;7.03;;;3.60;;
38238;SDS011;24035;48.900;9.188;2023-08-30T03:41:33;5.45;;;2.65;;
38238;SDS011;24035;48.900;9.188;2023-08-30T03:43:59;5.10;;;2.80;;
38238;SDS011;24035;48.900;9.188;2023-08-30T03:46:25;5.90;;;3.63;;
38238;SDS011;24035;48.900;9.188;2023-08-30T03:48:51;6.55;;;3.05;;
38238;SDS011;24035;48.900;9.188;2023-08-30T03:51:17;5.05;;;2.95;;
38238;SDS011;24035;48.900;9.188;2023-08-30T03:53:43;5.85;;;3.05;;
38238;SDS011;24035;48.900;9.188;2023-08-30T03:56:08;6.72;;;3.40;;
38238;SDS011;24035;48.900;9.188;2023-08-30T03:58:34;5.60;;;3.25;;
38238;SDS011;24035;48.900;9.188;2023-08-30T04:01:00;6.45;;;3.35;;
38238;SDS011;24035;48.900;9.188;2023-08-30T04:03:26;5.45;;;3.60;;
38238;SDS011;24035;48.900;9.188;2023-08-30T04:05:56;5.85;;;3.05;;
38238;SDS011;24035;48.900;9.188;2023-08-30T04:08:22;6.47;;;3.80;;
38238;SDS011;24035;48.900;9.188;2023-08-30T04:10:48;5.22;;;3.13;;
38238;SDS011;24035;48.900;9.188;2023-08-30T04:13:16;8.10;;;4.20;;
38238;SDS011;24035;48.900;9.188;2023-08-30T04:15:42;6.93;;;4.20;;
38238;SDS011;24035;48.900;9.188;2023-08-30T04:18:08;7.90;;;4.38;;
38238;SDS011;24035;48.900;9.188;2023-08-30T04:20:34;7.57;;;3.67;;
38238;SDS011;24035;48.900;9.188;2023-08-30T04:22:59;7.32;;;3.85;;
38238;SDS011;24035;48.900;9.188;2023-08-30T04:25:29;5.15;;;2.90;;
38238;SDS011;24035;48.900;9.188;2023-08-30T04:27:55;5.13;;;3.15;;
38238;SDS011;24035;48.900;9.188;2023-08-30T04:30:21;7.03;;;3.55;;
38238;SDS011;24035;48.900;9.188;2023-08-30T04:32:47;6.38;;;3.72;;
38238;SDS011;24035;48.900;9.188;2023-08-30T04:35:13;13.73;;;3.50;;
38238;SDS011;24035;48.900;9.188;2023-08-30T04:37:39;5.82;;;3.42;;
38238;SDS011;24035;48.900;9.188;2023-08-30T04:40:08;5.10;;;2.95;;
38238;SDS011;24035;48.900;9.188;2023-08-30T04:42:35;6.75;;;4.03;;
38238;SDS011;24035;48.900;9.188;2023-08-30T04:45:01;6.35;;;3.42;;
38238;SDS011;24035;48.900;9.188;2023-08-30T04:47:28;5.07;;;2.67;;
38238;SDS011;24035;48.900;9.188;2023-08-30T04:49:55;6.50;;;3.63;;
38238;SDS011;24035;48.900;9.188;2023-08-30T04:52:21;6.85;;;3.30;;
38238;SDS011;24035;48.900;9.188;2023-08-30T04:54:47;6.22;;;3.03;;
38238;SDS011;24035;48.900;9.188;2023-08-30T04:57:14;6.38;;;3.90;;
38238;SDS011;24035;48.900;9.188;2023-08-30T04:59:41;7.55;;;3.47;;
38238;SDS011;24035;48.900;9.188;2023-08-30T05:02:08;6.68;;;3.53;;
38238;SDS011;24035;48.900;9.188;2023-08-30T05:04:33;8.88;;;3.88;;
38238;SDS011;24035;48.900;9.188;2023-08-30T05:06:59;6.13;;;3.60;;
38238;SDS011;24035;48.900;9.188;2023-08-30T05:09:25;6.78;;;3.63;;
38238;SDS011;24035;48.900;9.188;2023-08-30T05:11:52;6.70;;;4.13;;
38238;SDS011;24035;48.900;9.188;2023-08-30T05:14:19;5.80;;;2.90;;
38238;SDS011;24035;48.900;9.188;2023-08-30T05:16:45;7.00;;;3.80;;
38238;SDS011;24035;48.900;9.188;2023-08-30T05:19:11;6.07;;;3.58;;
38238;SDS011;24035;48.900;9.188;2023-08-30T05:21:37;6.35;;;3.78;;
38238;SDS011;24035;48.900;9.188;2023-08-30T05:24:03;6.05;;;3.53;;
38238;SDS011;24035;48.900;9.188;2023-08-30T05:26:32;6.65;;;3.70;;
38238;SDS011;24035;48.900;9.188;2023-08-30T05:28:58;5.82;;;3.85;;
38238;SDS011;24035;48.900;9.188;2023-08-30T05:31:24;7.85;;;3.30;;
38238;SDS011;24035;48.900;9.188;2023-08-30T05:33:50;6.18;;;3.42;;
38238;SDS011;24035;48.900;9.188;2023-08-30T05:36:16;6.18;;;3.58;;
38238;SDS011;24035;48.900;9.188;2023-08-30T05:38:42;6.30;;;3.55;;
38238;SDS011;24035;48.900;9.188;2023-08-30T05:41:08;8.25;;;3.70;;
38238;SDS011;24035;48.900;9.188;2023-08-30T05:43:34;6.53;;;3.70;;
38238;SDS011;24035;48.900;9.188;2023-08-30T05:46:01;6.07;;;3.80;;
38238;SDS011;24035;48.900;9.188;2023-08-30T05:48:28;6.55;;;3.30;;
38238;SDS011;24035;48.900;9.188;2023-08-30T05:50:54;6.10;;;3.63;;
38238;SDS011;24035;48.900;9.188;2023-08-30T05:53:20;4.90;;;3.03;;
38238;SDS011;24035;48.900;9.188;2023-08-30T05:55:46;10.13;;;3.25;;
38238;SDS011;24035;48.900;9.188;2023-08-30T05:58:11;6.40;;;3.42;;
38238;SDS011;24035;48.900;9.188;2023-08-30T06:00:39;6.70;;;3.67;;
38238;SDS011;24035;48.900;9.188;2023-08-30T06:03:04;6.68;;;3.35;;
38238;SDS011;24035;48.900;9.188;2023-08-30T06:05:30;5.20;;;3.47;;
38238;SDS011;24035;48.900;9.188;2023-08-30T06:07:56;5.53;;;3.25;;
38238;SDS011;24035;48.900;9.188;2023-08-30T06:10:22;11.88;;;3.60;;
38238;SDS011;24035;48.900;9.188;2023-08-30T06:12:48;6.05;;;3.40;;
38238;SDS011;24035;48.900;9.188;2023-08-30T06:15:14;5.47;;;3.50;;
38238;SDS011;24035;48.900;9.188;2023-08-30T06:17:40;5.38;;;2.95;;
38238;SDS011;24035;48.900;9.188;2023-08-30T06:20:06;6.07;;;3.25;;
38238;SDS011;24035;48.900;9.188;2023-08-30T06:22:32;5.43;;;2.95;;
38238;SDS011;24035;48.900;9.188;2023-08-30T06:24:58;5.35;;;3.00;;
38238;SDS011;24035;48.900;9.188;2023-08-30T06:27:24;5.72;;;3.60;;
38238;SDS011;24035;48.900;9.188;2023-08-30T06:29:49;7.20;;;3.58;;
38238;SDS011;24035;48.900;9.188;2023-08-30T06:32:16;5.40;;;2.78;;
38238;SDS011;24035;48.900;9.188;2023-08-30T06:34:42;5.75;;;3.00;;
38238;SDS011;24035;48.900;9.188;2023-08-30T06:37:08;5.40;;;2.92;;
38238;SDS011;24035;48.900;9.188;2023-08-30T06:39:34;6.93;;;3.55;;
38238;SDS011;24035;48.900;9.188;2023-08-30T06:42:02;7.00;;;3.35;;
38238;SDS011;24035;48.900;9.188;2023-08-30T06:44:28;5.20;;;2.60;;
38238;SDS011;24035;48.900;9.188;2023-08-30T06:46:55;7.30;;;2.92;;
38238;SDS011;24035;48.900;9.188;2023-08-30T06:49:22;5.95;;;3.00;;
38238;SDS011;24035;48.900;9.188;2023-08-30T06:51:48;5.28;;;3.15;;
38238;SDS011;24035;48.900;9.188;2023-08-30T06:54:14;5.82;;;3.17;;
38238;SDS011;24035;48.900;9.188;2023-08-30T06:56:39;5.90;;;3.30;;
38238;SDS011;24035;48.900;9.188;2023-08-30T06:59:05;5.80;;;3.13;;
38238;SDS011;24035;48.900;9.188;2023-08-30T07:01:31;6.28;;;2.70;;
38238;SDS011;24035;48.900;9.188;2023-08-30T07:03:56;5.05;;;2.53;;
38238;SDS011;24035;48.900;9.188;2023-08-30T07:06:22;5.15;;;3.08;;
38238;SDS011;24035;48.900;9.188;2023-08-30T07:08:48;5.05;;;2.58;;
38238;SDS011;24035;48.900;9.188;2023-08-30T07:11:14;4.82;;;2.47;;
38238;SDS011;24035;48.900;9.188;2023-08-30T07:13:40;5.72;;;2.60;;
38238;SDS011;24035;48.900;9.188;2023-08-30T07:16:06;4.15;;;2.53;;
38238;SDS011;24035;48.900;9.188;2023-08-30T07:18:31;6.05;;;3.33;;
38238;SDS011;24035;48.900;9.188;2023-08-30T07:20:58;6.72;;;2.33;;
38238;SDS011;24035;48.900;9.188;2023-08-30T07:23:23;8.75;;;2.50;;
38238;SDS011;24035;48.900;9.188;2023-08-30T07:25:51;4.28;;;2.47;;
38238;SDS011;24035;48.900;9.188;2023-08-30T07:28:17;6.55;;;2.28;;
38238;SDS011;24035;48.900;9.188;2023-08-30T07:30:42;4.53;;;2.45;;
38238;SDS011;24035;48.900;9.188;2023-08-30T07:33:08;4.93;;;2.45;;
38238;SDS011;24035;48.900;9.188;2023-08-30T07:35:35;4.55;;;2.55;;
38238;SDS011;24035;48.900;9.188;2023-08-30T07:38:01;3.63;;;1.85;;
38238;SDS011;24035;48.900;9.188;2023-08-30T07:40:27;4.15;;;2.30;;
38238;SDS011;24035;48.900;9.188;2023-08-30T07:42:54;9.05;;;2.50;;
38238;SDS011;24035;48.900;9.188;2023-08-30T07:45:19;4.00;;;2.05;;
38238;SDS011;24035;48.900;9.188;2023-08-30T07:47:45;5.90;;;2.78;;
38238;SDS011;24035;48.900;9.188;2023-08-30T07:50:11;4.25;;;2.55;;
38238;SDS011;24035;48.900;9.188;2023-08-30T07:52:37;5.00;;;2.60;;
38238;SDS011;24035;48.900;9.188;2023-08-30T07:55:03;5.25;;;2.58;;
38238;SDS011;24035;48.900;9.188;2023-08-30T07:57:29;5.28;;;2.85;;
38238;SDS011;24035;48.900;9.188;2023-08-30T07:59:54;5.70;;;2.53;;
38238;SDS011;24035;48.900;9.188;2023-08-30T08:02:20;4.50;;;2.65;;
38238;SDS011;24035;48.900;9.188;2023-08-30T08:04:46;4.20;;;2.30;;
38238;SDS011;24035;48.900;9.188;2023-08-30T08:07:12;5.25;;;2.70;;
38238;SDS011;24035;48.900;9.188;2023-08-30T08:09:37;4.88;;;2.50;;
38238;SDS011;24035;48.900;9.188;2023-08-30T08:12:03;4.63;;;2.53;;
38238;SDS011;24035;48.900;9.188;2023-08-30T08:14:30;4.93;;;2.63;;
38238;SDS011;24035;48.900;9.188;2023-08-30T08:16:56;5.15;;;2.20;;
38238;SDS011;24035;48.900;9.188;2023-08-30T08:19:22;5.78;;;2.55;;
38238;SDS011;24035;48.900;9.188;2023-08-30T08:21:48;4.68;;;2.15;;
38238;SDS011;24035;48.900;9.188;2023-08-30T08:24:14;4.95;;;2.20;;
38238;SDS011;24035;48.900;9.188;2023-08-30T08:26:40;4.30;;;2.45;;
38238;SDS011;24035;48.900;9.188;2023-08-30T08:29:05;7.30;;;1.90;;
38238;SDS011;24035;48.900;9.188;2023-08-30T08:31:31;4.00;;;2.25;;
38238;SDS011;24035;48.900;9.188;2023-08-30T08:34:10;6.25;;;2.10;;
38238;SDS011;24035;48.900;9.188;2023-08-30T08:36:40;4.90;;;2.08;;
38238;SDS011;24035;48.900;9.188;2023-08-30T08:39:07;4.53;;;2.45;;
38238;SDS011;24035;48.900;9.188;2023-08-30T08:41:35;4.38;;;2.00;;
38238;SDS011;24035;48.900;9.188;2023-08-30T08:44:05;5.07;;;2.08;;
38238;SDS011;24035;48.900;9.188;2023-08-30T08:46:38;4.75;;;2.22;;
38238;SDS011;24035;48.900;9.188;2023-08-30T08:49:13;4.38;;;1.75;;
38238;SDS011;24035;48.900;9.188;2023-08-30T08:51:42;3.72;;;1.60;;
38238;SDS011;24035;48.900;9.188;2023-08-30T08:54:10;5.57;;;2.30;;
38238;SDS011;24035;48.900;9.188;2023-08-30T08:56:37;3.22;;;1.65;;
38238;SDS011;24035;48.900;9.188;2023-08-30T08:59:03;3.85;;;1.92;;
38238;SDS011;24035;48.900;9.188;2023-08-30T09:01:36;5.65;;;2.00;;
38238;SDS011;24035;48.900;9.188;2023-08-30T09:04:11;3.58;;;1.80;;
38238;SDS011;24035;48.900;9.188;2023-08-30T09:06:37;3.28;;;1.70;;
38238;SDS011;24035;48.900;9.188;2023-08-30T09:09:08;4.47;;;1.60;;
38238;SDS011;24035;48.900;9.188;2023-08-30T09:11:35;3.47;;;1.60;;
38238;SDS011;24035;48.900;9.188;2023-08-30T09:14:01;6.05;;;1.67;;
38238;SDS011;24035;48.900;9.188;2023-08-30T09:16:27;3.97;;;1.60;;
38238;SDS011;24035;48.900;9.188;2023-08-30T09:18:58;3.85;;;1.73;;
38238;SDS011;24035;48.900;9.188;2023-08-30T09:21:25;3.38;;;1.45;;
38238;SDS011;24035;48.900;9.188;2023-08-30T09:26:28;3.72;;;1.50;;
38238;SDS011;24035;48.900;9.188;2023-08-30T09:29:03;3.55;;;1.25;;
38238;SDS011;24035;48.900;9.188;2023-08-30T09:31:36;3.10;;;1.08;;
38238;SDS011;24035;48.900;9.188;2023-08-30T09:34:04;2.75;;;1.27;;
38238;SDS011;24035;48.900;9.188;2023-08-30T09:36:34;3.38;;;1.20;;
38238;SDS011;24035;48.900;9.188;2023-08-30T09:39:07;2.78;;;1.08;;
38238;SDS011;24035;48.900;9.188;2023-08-30T09:41:37;3.22;;;1.30;;
38238;SDS011;24035;48.900;9.188;2023-08-30T09:44:10;3.45;;;1.55;;
38238;SDS011;24035;48.900;9.188;2023-08-30T09:46:42;2.83;;;1.30;;
38238;SDS011;24035;48.900;9.188;2023-08-30T09:49:11;3.00;;;1.17;;
38238;SDS011;24035;48.900;9.188;2023-08-30T09:51:38;3.08;;;1.40;;
38238;SDS011;24035;48.900;9.188;2023-08-30T09:54:18;2.58;;;1.00;;
38238;SDS011;24035;48.900;9.188;2023-08-30T09:56:45;2.60;;;0.98;;
38238;SDS011;24035;48.900;9.188;2023-08-30T09:59:12;2.28;;;1.25;;
38238;SDS011;24035;48.900;9.188;2023-08-30T10:01:42;1.80;;;0.82;;
38238;SDS011;24035;48.900;9.188;2023-08-30T10:04:09;3.17;;;1.08;;
38238;SDS011;24035;48.900;9.188;2023-08-30T10:06:36;2.53;;;1.10;;
38238;SDS011;24035;48.900;9.188;2023-08-30T10:09:03;2.00;;;1.05;;
38238;SDS011;24035;48.900;9.188;2023-08-30T10:11:34;2.33;;;1.08;;
38238;SDS011;24035;48.900;9.188;2023-08-30T10:14:02;2.50;;;0.90;;
38238;SDS011;24035;48.900;9.188;2023-08-30T10:16:30;2.42;;;1.02;;
38238;SDS011;24035;48.900;9.188;2023-08-30T10:19:10;2.63;;;1.17;;
38238;SDS011;24035;48.900;9.188;2023-08-30T10:24:08;1.80;;;0.77;;
38238;SDS011;24035;48.900;9.188;2023-08-30T10:26:38;1.63;;;0.80;;
38238;SDS011;24035;48.900;9.188;2023-08-30T10:29:06;1.88;;;0.70;;
38238;SDS011;24035;48.900;9.188;2023-08-30T10:31:35;2.55;;;0.90;;
38238;SDS011;24035;48.900;9.188;2023-08-30T10:34:11;2.47;;;1.00;;
38238;SDS011;24035;48.900;9.188;2023-08-30T10:36:42;4.68;;;0.90;;
38238;SDS011;24035;48.900;9.188;2023-08-30T10:39:13;1.70;;;0.70;;
38238;SDS011;24035;48.900;9.188;2023-08-30T10:41:55;1.90;;;0.85;;
38238;SDS011;24035;48.900;9.188;2023-08-30T10:44:22;1.60;;;0.63;;
38238;SDS011;24035;48.900;9.188;2023-08-30T10:46:55;2.38;;;0.85;;
38238;SDS011;24035;48.900;9.188;2023-08-30T10:49:21;2.58;;;1.00;;
38238;SDS011;24035;48.900;9.188;2023-08-30T10:51:54;1.65;;;0.70;;
38238;SDS011;24035;48.900;9.188;2023-08-30T10:54:23;1.83;;;0.70;;
38238;SDS011;24035;48.900;9.188;2023-08-30T10:56:55;1.90;;;0.90;;
38238;SDS011;24035;48.900;9.188;2023-08-30T10:59:24;2.22;;;0.82;;
38238;SDS011;24035;48.900;9.188;2023-08-30T11:01:50;1.65;;;0.77;;
38238;SDS011;24035;48.900;9.188;2023-08-30T11:04:18;2.40;;;0.80;;
38238;SDS011;24035;48.900;9.188;2023-08-30T11:06:45;3.67;;;0.80;;
38238;SDS011;24035;48.900;9.188;2023-08-30T11:09:14;1.67;;;0.80;;
38238;SDS011;24035;48.900;9.188;2023-08-30T11:11:44;1.25;;;0.60;;
38238;SDS011;24035;48.900;9.188;2023-08-30T11:14:11;2.55;;;1.00;;
38238;SDS011;24035;48.900;9.188;2023-08-30T11:16:37;2.47;;;0.70;;
38238;SDS011;24035;48.900;9.188;2023-08-30T11:19:04;1.95;;;0.90;;
38238;SDS011;24035;48.900;9.188;2023-08-30T11:21:33;1.95;;;0.75;;
38238;SDS011;24035;48.900;9.188;2023-08-30T11:23:59;2.42;;;0.80;;
38238;SDS011;24035;48.900;9.188;2023-08-30T11:26:25;1.88;;;0.80;;
38238;SDS011;24035;48.900;9.188;2023-08-30T11:28:51;1.88;;;0.80;;
38238;SDS011;24035;48.900;9.188;2023-08-30T11:31:21;2.85;;;1.02;;
38238;SDS011;24035;48.900;9.188;2023-08-30T11:34:00;2.05;;;0.88;;
38238;SDS011;24035;48.900;9.188;2023-08-30T11:36:27;1.90;;;0.73;;
38238;SDS011;24035;48.900;9.188;2023-08-30T11:38:54;2.15;;;1.00;;
38238;SDS011;24035;48.900;9.188;2023-08-30T11:41:21;2.65;;;1.10;;
38238;SDS011;24035;48.900;9.188;2023-08-30T11:43:47;2.72;;;1.02;;
38238;SDS011;24035;48.900;9.188;2023-08-30T11:46:14;1.83;;;0.80;;
38238;SDS011;24035;48.900;9.188;2023-08-30T11:48:40;2.10;;;0.93;;
38238;SDS011;24035;48.900;9.188;2023-08-30T11:51:06;2.65;;;0.90;;
38238;SDS011;24035;48.900;9.188;2023-08-30T11:53:33;1.95;;;0.90;;
38238;SDS011;24035;48.900;9.188;2023-08-30T11:56:00;1.95;;;0.90;;
38238;SDS011;24035;48.900;9.188;2023-08-30T11:58:26;1.83;;;0.80;;
38238;SDS011;24035;48.900;9.188;2023-08-30T12:00:52;4.35;;;1.00;;
38238;SDS011;24035;48.900;9.188;2023-08-30T12:03:22;3.53;;;1.30;;
38238;SDS011;24035;48.900;9.188;2023-08-30T12:05:49;2.28;;;0.82;;
38238;SDS011;24035;48.900;9.188;2023-08-30T12:08:19;3.60;;;1.00;;
38238;SDS011;24035;48.900;9.188;2023-08-30T12:10:48;3.17;;;0.98;;
38238;SDS011;24035;48.900;9.188;2023-08-30T12:15:51;1.50;;;0.80;;
38238;SDS011;24035;48.900;9.188;2023-08-30T12:18:20;1.88;;;0.77;;
38238;SDS011;24035;48.900;9.188;2023-08-30T12:20:54;2.42;;;0.90;;
38238;SDS011;24035;48.900;9.188;2023-08-30T12:23:22;2.42;;;1.13;;
38238;SDS011;24035;48.900;9.188;2023-08-30T12:26:05;1.65;;;0.82;;
38238;SDS011;24035;48.900;9.188;2023-08-30T12:28:35;2.30;;;1.00;;
38238;SDS011;24035;48.900;9.188;2023-08-30T12:31:03;1.95;;;0.95;;
38238;SDS011;24035;48.900;9.188;2023-08-30T12:33:29;3.60;;;1.55;;
38238;SDS011;24035;48.900;9.188;2023-08-30T12:35:56;3.50;;;1.20;;
38238;SDS011;24035;48.900;9.188;2023-08-30T12:38:22;3.08;;;1.35;;
38238;SDS011;24035;48.900;9.188;2023-08-30T12:40:49;1.70;;;0.80;;
38238;SDS011;24035;48.900;9.188;2023-08-30T12:43:16;2.28;;;0.90;;
38238;SDS011;24035;48.900;9.188;2023-08-30T12:45:42;2.83;;;1.20;;
38238;SDS011;24035;48.900;9.188;2023-08-30T12:48:10;2.88;;;0.93;;
38238;SDS011;24035;48.900;9.188;2023-08-30T12:50:37;2.67;;;0.80;;
38238;SDS011;24035;48.900;9.188;2023-08-30T12:53:03;1.80;;;0.80;;
38238;SDS011;24035;48.900;9.188;2023-08-30T12:55:29;2.80;;;1.17;;
38238;SDS011;24035;48.900;9.188;2023-08-30T12:57:56;2.92;;;1.10;;
38238;SDS011;24035;48.900;9.188;2023-08-30T13:00:22;2.05;;;0.95;;
38238;SDS011;24035;48.900;9.188;2023-08-30T13:02:48;2.08;;;0.90;;
38238;SDS011;24035;48.900;9.188;2023-08-30T13:05:13;2.38;;;1.00;;
38238;SDS011;24035;48.900;9.188;2023-08-30T13:07:39;2.58;;;0.90;;
38238;SDS011;24035;48.900;9.188;2023-08-30T13:10:06;2.78;;;1.00;;
38238;SDS011;24035;48.900;9.188;2023-08-30T13:12:32;2.50;;;1.05;;
38238;SDS011;24035;48.900;9.188;2023-08-30T13:14:58;2.20;;;1.00;;
38238;SDS011;24035;48.900;9.188;2023-08-30T13:17:24;3.42;;;1.00;;
38238;SDS011;24035;48.900;9.188;2023-08-30T13:19:49;2.47;;;0.98;;
38238;SDS011;24035;48.900;9.188;2023-08-30T13:22:16;2.22;;;0.90;;
38238;SDS011;24035;48.900;9.188;2023-08-30T13:24:43;4.65;;;1.30;;
38238;SDS011;24035;48.900;9.188;2023-08-30T13:27:09;2.05;;;0.82;;
38238;SDS011;24035;48.900;9.188;2023-08-30T13:29:35;2.03;;;0.88;;
38238;SDS011;24035;48.900;9.188;2023-08-30T13:32:02;1.63;;;0.77;;
38238;SDS011;24035;48.900;9.188;2023-08-30T13:34:28;3.70;;;1.23;;
38238;SDS011;24035;48.900;9.188;2023-08-30T13:36:54;2.17;;;0.90;;
38238;SDS011;24035;48.900;9.188;2023-08-30T13:39:20;6.47;;;1.30;;
38238;SDS011;24035;48.900;9.188;2023-08-30T13:41:46;2.10;;;0.80;;
38238;SDS011;24035;48.900;9.188;2023-08-30T13:44:13;4.05;;;0.80;;
38238;SDS011;24035;48.900;9.188;2023-08-30T13:46:39;1.95;;;0.82;;
38238;SDS011;24035;48.900;9.188;2023-08-30T13:49:04;0.98;;;0.60;;
38238;SDS011;24035;48.900;9.188;2023-08-30T13:51:30;1.98;;;0.90;;
38238;SDS011;24035;48.900;9.188;2023-08-30T13:53:56;2.67;;;1.02;;
38238;SDS011;24035;48.900;9.188;2023-08-30T13:56:22;2.90;;;0.90;;
38238;SDS011;24035;48.900;9.188;2023-08-30T13:58:48;1.52;;;0.70;;
38238;SDS011;24035;48.900;9.188;2023-08-30T14:01:14;2.25;;;0.93;;
38238;SDS011;24035;48.900;9.188;2023-08-30T14:03:40;2.30;;;0.90;;
38238;SDS011;24035;48.900;9.188;2023-08-30T14:06:06;2.17;;;1.00;;
38238;SDS011;24035;48.900;9.188;2023-08-30T14:08:32;2.90;;;1.00;;
38238;SDS011;24035;48.900;9.188;2023-08-30T14:10:58;1.60;;;0.70;;
38238;SDS011;24035;48.900;9.188;2023-08-30T14:13:24;2.58;;;1.30;;
38238;SDS011;24035;48.900;9.188;2023-08-30T14:15:50;2.15;;;0.70;;
38238;SDS011;24035;48.900;9.188;2023-08-30T14:18:16;1.90;;;0.65;;
38238;SDS011;24035;48.900;9.188;2023-08-30T14:20:42;2.20;;;1.10;;
38238;SDS011;24035;48.900;9.188;2023-08-30T14:23:08;2.00;;;0.80;;
38238;SDS011;24035;48.900;9.188;2023-08-30T14:25:34;5.00;;;0.80;;
38238;SDS011;24035;48.900;9.188;2023-08-30T14:28:00;2.17;;;0.70;;
38238;SDS011;24035;48.900;9.188;2023-08-30T14:30:26;2.83;;;1.10;;
38238;SDS011;24035;48.900;9.188;2023-08-30T14:32:52;2.70;;;1.20;;
38238;SDS011;24035;48.900;9.188;2023-08-30T14:35:18;2.22;;;0.95;;
38238;SDS011;24035;48.900;9.188;2023-08-30T14:37:46;3.47;;;1.10;;
38238;SDS011;24035;48.900;9.188;2023-08-30T14:40:12;1.95;;;0.73;;
38238;SDS011;24035;48.900;9.188;2023-08-30T14:42:39;2.63;;;0.93;;
38238;SDS011;24035;48.900;9.188;2023-08-30T14:45:05;1.98;;;0.90;;
38238;SDS011;24035;48.900;9.188;2023-08-30T14:47:34;2.15;;;0.88;;
38238;SDS011;24035;48.900;9.188;2023-08-30T14:50:00;2.60;;;1.10;;
38238;SDS011;24035;48.900;9.188;2023-08-30T14:52:30;3.08;;;1.20;;
38238;SDS011;24035;48.900;9.188;2023-08-30T14:54:56;2.00;;;1.00;;
38238;SDS011;24035;48.900;9.188;2023-08-30T14:57:22;1.92;;;0.90;;
38238;SDS011;24035;48.900;9.188;2023-08-30T14:59:50;2.33;;;0.85;;